Airfield :
LOGIN :

Register | Disclaimer

   EN    FR    IT 

 










Legend :    VFR   Marginal VFR   IFR   Intensive IFR   Very Intensive IFR
Visi :
Ceiling :
>= 8 km
>= 3000ft
5 to 8 km
1000 to 3000 ft
1500m to 5 km
500 to 1000 ft
800 to 1500m
200 to 500 ft
< 800m
< 200 ft
Symbols :   Thunderstorms  Fog  Heavy snow  Heavy precipitations  Wind > 20 kt
SIGMETs :     Misc.  Thunderstorms  Icing  Turbulence  Mountain Waves  Volcanic Ashes






- Airport Elevation : 202 ft
- IATA code : LGW


EGKK - London Gatwick

CURRENT METAR :
  • 222250Z 23007KT 9999 SCT022 04/02 Q0994

EXPIRED METARs :
  • 222220Z 22005KT 9999 SCT025 03/02 Q0993
  • 222150Z 23006KT 9999 SCT032 03/02 Q0993
  • 222120Z 23005KT 9999 SCT033 04/02 Q0993
  • 222050Z 22006KT 9999 FEW021 SCT034 04/02 Q0993
  • 222020Z 21005KT 9999 FEW032 04/02 Q0993

TAF TAF EGKK
Valid from the 22 at 18:00 until the 24 at 00:00 UTC


221658Z 2218/2324 22006KT 9999 FEW020
PROB30
TEMPO 2218/2222 4000 SHRA SHGS BKN012
PROB30
TEMPO 2222/2302 28010KT 8000 BKN008
TEMPO 2302/2311 6000
PROB30
TEMPO 2304/2310 2000 BR MIFG BKN002
BECMG 2312/2315 30010KT
PROB30
TEMPO 2315/2319 5000 -SHRASN BKN010
BECMG 2321/2324 24005KT



MET'MAP, your aeronautical weather chart ! - Copyright ORBIFLY December 2007 - Disclaimer

ORBIFLY MET'MAP TEAM :

Programming & Development : Alexandra Zaïnal
Concept & original design : Baudouin d'Aumeries
Assistance for programming : Marc-Olivier Méhu
Technical & hardware support : Manuel Goepfert

Contact : metmap@orbifly.com




SOURCES & CREDITS :

   NOAA